createdAt,value
2023-03-06T00:00:35.457Z,30.57
2023-03-06T00:01:35.509Z,30.60
2023-03-06T00:02:35.562Z,30.53
2023-03-06T00:03:35.650Z,30.53
2023-03-06T00:04:35.659Z,30.52
2023-03-06T00:05:34.755Z,30.59
2023-03-06T00:06:35.744Z,30.57
2023-03-06T00:07:35.798Z,30.60
2023-03-06T00:08:35.882Z,30.62
2023-03-06T00:09:35.902Z,30.55
2023-03-06T00:10:35.951Z,30.60
2023-03-06T00:11:36.002Z,30.67
2023-03-06T00:12:36.038Z,30.65
2023-03-06T00:13:35.114Z,30.77
2023-03-06T00:14:35.108Z,30.63
2023-03-06T00:15:36.147Z,30.63
2023-03-06T00:16:36.315Z,30.63
2023-03-06T00:17:36.233Z,30.59
2023-03-06T00:18:36.265Z,30.56
2023-03-06T00:19:35.345Z,30.51
2023-03-06T00:20:35.332Z,30.54
2023-03-06T00:21:36.370Z,30.51
2023-03-06T00:22:36.383Z,30.43
2023-03-06T00:23:36.429Z,30.40
2023-03-06T00:24:36.424Z,30.43
2023-03-06T00:25:36.431Z,30.39
2023-03-06T00:26:35.448Z,30.31
2023-03-06T00:27:35.456Z,30.31
2023-03-06T00:28:35.463Z,30.26
2023-03-06T00:29:36.485Z,30.26
2023-03-06T00:30:36.565Z,30.23
2023-03-06T00:31:36.539Z,30.14
2023-03-06T00:32:35.554Z,30.16
2023-03-06T00:33:36.449Z,30.12
2023-03-06T00:34:35.453Z,30.12
2023-03-06T00:35:36.556Z,30.10
2023-03-06T00:36:36.476Z,30.08
2023-03-06T00:37:35.514Z,30.09
2023-03-06T00:38:36.479Z,30.04
2023-03-06T00:39:36.477Z,29.99
2023-03-06T00:40:35.486Z,29.99
2023-03-06T00:41:36.497Z,29.99
2023-03-06T00:42:36.543Z,29.91
2023-03-06T00:43:36.517Z,29.93
2023-03-06T00:44:36.542Z,29.87
2023-03-06T00:45:36.573Z,29.88
2023-03-06T00:46:36.540Z,29.90
2023-03-06T00:47:36.531Z,29.85
2023-03-06T00:48:36.556Z,29.77
2023-03-06T00:49:36.536Z,29.85
2023-03-06T00:50:36.541Z,29.85
2023-03-06T00:51:36.535Z,29.83
2023-03-06T00:52:35.541Z,29.76
2023-03-06T00:53:36.600Z,29.78
2023-03-06T00:54:36.549Z,29.75
2023-03-06T00:55:36.575Z,29.75
2023-03-06T00:56:36.560Z,29.71
2023-03-06T00:57:36.595Z,29.67
2023-03-06T00:58:36.602Z,29.68
2023-03-06T00:59:35.647Z,29.70
2023-03-06T01:00:36.782Z,29.64
2023-03-06T01:01:36.754Z,29.69
2023-03-06T01:02:36.809Z,29.66
2023-03-06T01:03:36.849Z,29.63
2023-03-06T01:04:36.904Z,29.69
2023-03-06T01:05:36.962Z,29.65
2023-03-06T01:06:37.042Z,29.59
2023-03-06T01:07:37.085Z,29.56
2023-03-06T01:08:37.147Z,29.58
2023-03-06T01:09:37.218Z,29.63
2023-03-06T01:10:36.243Z,29.59
2023-03-06T01:11:36.292Z,29.60
2023-03-06T01:12:37.362Z,29.52
2023-03-06T01:13:37.448Z,29.51
2023-03-06T01:14:37.501Z,29.55
2023-03-06T01:15:37.552Z,29.48
2023-03-06T01:16:37.660Z,29.51
2023-03-06T01:17:36.691Z,29.52
2023-03-06T01:18:36.752Z,29.51
2023-03-06T01:19:37.820Z,29.51
2023-03-06T01:20:36.882Z,29.53
2023-03-06T01:21:37.955Z,29.44
2023-03-06T01:22:38.001Z,29.45
2023-03-06T01:23:38.063Z,29.45
2023-03-06T01:24:38.124Z,29.41
2023-03-06T01:25:38.213Z,29.47
2023-03-06T01:26:38.252Z,29.41
2023-03-06T01:27:38.312Z,29.50
2023-03-06T01:28:38.371Z,29.47
2023-03-06T01:29:38.430Z,29.43
2023-03-06T01:30:38.488Z,29.36
2023-03-06T01:31:38.654Z,29.40
2023-03-06T01:32:38.717Z,29.44
2023-03-06T01:33:38.685Z,29.40
2023-03-06T01:34:37.746Z,29.39
2023-03-06T01:35:37.849Z,29.36
2023-03-06T01:36:38.855Z,29.40
2023-03-06T01:37:38.918Z,29.35
2023-03-06T01:38:38.980Z,29.35
2023-03-06T01:39:39.035Z,29.41
2023-03-06T01:40:39.112Z,29.36
2023-03-06T01:41:38.196Z,29.32
2023-03-06T01:42:39.219Z,29.35
2023-03-06T01:43:39.270Z,29.35
2023-03-06T01:44:39.338Z,29.32
2023-03-06T01:45:39.399Z,29.35
2023-03-06T01:46:38.438Z,29.31
2023-03-06T01:47:39.496Z,29.32
2023-03-06T01:48:39.565Z,29.28
2023-03-06T01:49:39.635Z,29.31
2023-03-06T01:50:38.673Z,29.25
2023-03-06T01:51:39.722Z,29.25
2023-03-06T01:52:39.816Z,29.32
2023-03-06T01:53:39.853Z,29.26
2023-03-06T01:54:38.906Z,29.27
2023-03-06T01:55:39.938Z,29.30
2023-03-06T01:56:38.996Z,29.22
2023-03-06T01:57:40.075Z,29.30
2023-03-06T01:58:40.101Z,29.24
2023-03-06T01:59:39.147Z,29.21
2023-03-06T02:00:40.211Z,29.21
2023-03-06T02:01:40.247Z,29.21
2023-03-06T02:02:40.345Z,29.18
2023-03-06T02:03:39.352Z,29.24
2023-03-06T02:04:40.454Z,29.23
2023-03-06T02:05:39.461Z,29.24
2023-03-06T02:06:40.525Z,29.23
2023-03-06T02:07:40.577Z,29.17
2023-03-06T02:08:40.632Z,29.17
2023-03-06T02:09:40.690Z,29.22
2023-03-06T02:10:40.731Z,29.14
2023-03-06T02:11:40.823Z,29.16
2023-03-06T02:12:40.825Z,29.19
2023-03-06T02:13:40.902Z,29.23
2023-03-06T02:14:40.941Z,29.22
2023-03-06T02:15:40.965Z,29.14
2023-03-06T02:16:41.108Z,29.20
2023-03-06T02:17:40.081Z,29.22
2023-03-06T02:18:41.118Z,29.21
2023-03-06T02:19:40.156Z,29.17
2023-03-06T02:20:41.201Z,29.13
2023-03-06T02:21:41.289Z,29.12
2023-03-06T02:22:41.300Z,29.13
2023-03-06T02:23:41.339Z,29.15
2023-03-06T02:24:41.387Z,29.12
2023-03-06T02:25:40.424Z,29.12
2023-03-06T02:26:41.469Z,29.15
2023-03-06T02:27:41.524Z,29.12
2023-03-06T02:28:41.555Z,29.08
2023-03-06T02:29:41.614Z,29.08
2023-03-06T02:30:40.682Z,29.12
2023-03-06T02:31:41.675Z,29.14
2023-03-06T02:32:40.713Z,29.17
2023-03-06T02:33:41.756Z,29.09
2023-03-06T02:34:40.804Z,29.11
2023-03-06T02:35:41.895Z,29.11
2023-03-06T02:36:40.888Z,29.14
2023-03-06T02:37:40.938Z,29.11
2023-03-06T02:38:41.975Z,29.11
2023-03-06T02:39:42.008Z,29.05
2023-03-06T02:40:42.045Z,29.04
2023-03-06T02:41:42.091Z,29.08
2023-03-06T02:42:42.135Z,29.15
2023-03-06T02:43:41.172Z,29.12
2023-03-06T02:44:41.255Z,29.12
2023-03-06T02:45:41.289Z,29.09
2023-03-06T02:46:41.309Z,29.08
2023-03-06T02:47:42.362Z,29.08
2023-03-06T02:48:42.425Z,29.05
2023-03-06T02:49:42.458Z,29.11
2023-03-06T02:50:41.522Z,29.05
2023-03-06T02:51:42.603Z,29.06
2023-03-06T02:52:42.600Z,29.14
2023-03-06T02:53:42.649Z,29.06
2023-03-06T02:54:42.711Z,29.13
2023-03-06T02:55:42.746Z,29.09
2023-03-06T02:56:41.780Z,29.13
2023-03-06T02:57:42.840Z,29.06
2023-03-06T02:58:42.881Z,29.14
2023-03-06T02:59:42.943Z,29.14
2023-03-06T03:00:41.968Z,29.11
2023-03-06T03:01:43.116Z,29.11
2023-03-06T03:02:43.071Z,29.11
2023-03-06T03:03:42.110Z,29.09
2023-03-06T03:04:42.209Z,29.13
2023-03-06T03:05:43.222Z,29.05
2023-03-06T03:06:42.269Z,29.12
2023-03-06T03:07:43.320Z,29.09
2023-03-06T03:08:43.372Z,29.11
2023-03-06T03:09:43.425Z,29.15
2023-03-06T03:10:42.480Z,29.15
2023-03-06T03:11:43.561Z,29.11
2023-03-06T03:12:43.611Z,29.12
2023-03-06T03:13:42.627Z,29.10
2023-03-06T03:14:43.700Z,29.19
2023-03-06T03:15:43.790Z,29.12
2023-03-06T03:16:43.773Z,29.11
2023-03-06T03:17:43.865Z,29.17
2023-03-06T03:18:43.886Z,29.12
2023-03-06T03:19:43.916Z,29.10
2023-03-06T03:20:42.991Z,29.11
2023-03-06T03:21:44.009Z,29.11
2023-03-06T03:22:44.054Z,29.15
2023-03-06T03:23:44.105Z,29.12
2023-03-06T03:24:44.177Z,29.13
2023-03-06T03:25:43.221Z,29.15
2023-03-06T03:26:43.241Z,29.12
2023-03-06T03:27:44.282Z,29.08
2023-03-06T03:28:44.343Z,29.11
2023-03-06T03:29:44.369Z,29.10
2023-03-06T03:30:44.428Z,29.11
2023-03-06T03:31:43.470Z,29.07
2023-03-06T03:32:44.544Z,29.09
2023-03-06T03:33:44.602Z,29.14
2023-03-06T03:34:44.626Z,29.15
2023-03-06T03:35:44.696Z,29.10
2023-03-06T03:36:44.715Z,29.08
2023-03-06T03:37:44.743Z,29.10
2023-03-06T03:38:44.800Z,29.11
2023-03-06T03:39:44.837Z,29.10
2023-03-06T03:40:44.916Z,29.10
2023-03-06T03:41:44.934Z,29.12
2023-03-06T03:42:44.981Z,29.12
2023-03-06T03:43:44.033Z,29.09
2023-03-06T03:44:45.072Z,29.09
2023-03-06T03:45:45.154Z,29.07
2023-03-06T03:46:45.261Z,29.03
2023-03-06T03:47:45.199Z,29.07
2023-03-06T03:48:45.246Z,29.10
2023-03-06T03:49:45.323Z,29.06
2023-03-06T03:50:45.374Z,29.08
2023-03-06T03:51:45.387Z,29.10
2023-03-06T03:52:44.434Z,29.04
2023-03-06T03:53:45.456Z,29.03
2023-03-06T03:54:45.509Z,29.07
2023-03-06T03:55:45.566Z,29.05
2023-03-06T03:56:45.629Z,29.03
2023-03-06T03:57:45.628Z,29.06
2023-03-06T03:58:44.688Z,29.08
2023-03-06T03:59:45.715Z,29.03
2023-03-06T04:00:44.763Z,29.03
2023-03-06T04:01:45.860Z,29.04
2023-03-06T04:02:45.857Z,29.01
2023-03-06T04:03:45.869Z,29.01
2023-03-06T04:04:45.935Z,29.04
2023-03-06T04:05:44.983Z,29.00
2023-03-06T04:06:46.019Z,29.01
2023-03-06T04:07:46.077Z,29.06
2023-03-06T04:08:46.107Z,29.04
2023-03-06T04:09:46.126Z,29.07
2023-03-06T04:10:46.174Z,29.03
2023-03-06T04:11:46.222Z,29.04
2023-03-06T04:12:46.264Z,29.09
2023-03-06T04:13:46.381Z,29.09
2023-03-06T04:14:46.334Z,29.00
2023-03-06T04:15:46.371Z,29.03
2023-03-06T04:16:45.417Z,29.01
2023-03-06T04:17:46.463Z,29.01
2023-03-06T04:18:46.507Z,28.99
2023-03-06T04:19:45.554Z,29.04
2023-03-06T04:20:46.597Z,29.03
2023-03-06T04:21:46.644Z,29.01
2023-03-06T04:22:45.660Z,29.03
2023-03-06T04:23:46.699Z,29.00
2023-03-06T04:24:46.751Z,29.07
2023-03-06T04:25:45.776Z,28.99
2023-03-06T04:26:46.824Z,29.00
2023-03-06T04:27:46.874Z,29.06
2023-03-06T04:28:45.894Z,29.05
2023-03-06T04:29:46.938Z,29.01
2023-03-06T04:30:46.989Z,29.06
2023-03-06T04:31:47.050Z,29.00
2023-03-06T04:32:46.054Z,29.00
2023-03-06T04:33:46.104Z,29.03
2023-03-06T04:34:46.153Z,29.01
2023-03-06T04:35:47.244Z,29.00
2023-03-06T04:36:47.220Z,29.03
2023-03-06T04:37:46.286Z,29.03
2023-03-06T04:38:46.421Z,29.07
2023-03-06T04:39:47.335Z,29.04
2023-03-06T04:40:47.377Z,29.00
2023-03-06T04:41:46.422Z,29.01
2023-03-06T04:42:47.480Z,29.03
2023-03-06T04:43:47.482Z,28.99
2023-03-06T04:44:47.533Z,29.05
2023-03-06T04:45:47.654Z,29.06
2023-03-06T04:46:47.634Z,28.99
2023-03-06T04:47:47.652Z,29.04
2023-03-06T04:48:46.686Z,29.07
2023-03-06T04:49:47.734Z,29.04
2023-03-06T04:50:46.776Z,29.03
2023-03-06T04:51:47.819Z,29.03
2023-03-06T04:52:47.865Z,29.07
2023-03-06T04:53:46.921Z,29.07
2023-03-06T04:54:46.938Z,29.07
2023-03-06T04:55:47.993Z,29.09
2023-03-06T04:56:48.006Z,29.03
2023-03-06T04:57:48.034Z,29.03
2023-03-06T04:58:48.072Z,29.03
2023-03-06T04:59:47.119Z,29.03
2023-03-06T05:00:48.229Z,29.07
2023-03-06T05:01:47.270Z,29.00
2023-03-06T05:02:48.231Z,29.06
2023-03-06T05:03:48.253Z,29.06
2023-03-06T05:04:48.302Z,29.01
2023-03-06T05:05:48.341Z,29.06
2023-03-06T05:06:48.386Z,29.06
2023-03-06T05:07:47.441Z,29.04
2023-03-06T05:08:47.462Z,29.01
2023-03-06T05:09:48.506Z,28.97
2023-03-06T05:10:48.531Z,29.08
2023-03-06T05:11:48.575Z,29.03
2023-03-06T05:12:47.606Z,29.00
2023-03-06T05:13:48.656Z,29.08
2023-03-06T05:14:48.682Z,29.03
2023-03-06T05:15:48.696Z,29.05
2023-03-06T05:16:48.835Z,29.00
2023-03-06T05:17:48.784Z,29.00
2023-03-06T05:18:50.602Z,29.09
2023-03-06T05:19:48.793Z,29.05
2023-03-06T05:20:48.793Z,29.03
2023-03-06T05:21:48.791Z,29.02
2023-03-06T05:22:48.773Z,29.00
2023-03-06T05:23:48.770Z,29.05
2023-03-06T05:24:48.776Z,28.99
2023-03-06T05:25:48.773Z,29.02
2023-03-06T05:26:47.741Z,29.00
2023-03-06T05:27:48.740Z,29.02
2023-03-06T05:28:48.732Z,28.99
2023-03-06T05:29:49.408Z,29.00
2023-03-06T05:30:48.713Z,29.01
2023-03-06T05:31:48.826Z,29.03
2023-03-06T05:32:48.744Z,29.04
2023-03-06T05:33:48.702Z,29.00
2023-03-06T05:34:48.679Z,28.99
2023-03-06T05:35:48.736Z,28.96
2023-03-06T05:36:48.681Z,29.02
2023-03-06T05:37:48.685Z,29.02
2023-03-06T05:38:48.688Z,28.98
2023-03-06T05:39:48.662Z,28.98
2023-03-06T05:40:48.659Z,28.99
2023-03-06T05:41:48.664Z,28.99
2023-03-06T05:42:48.651Z,29.01
2023-03-06T05:43:48.645Z,28.95
2023-03-06T05:44:48.623Z,28.96
2023-03-06T05:45:47.665Z,28.98
2023-03-06T05:46:47.610Z,29.01
2023-03-06T05:47:48.608Z,28.99
2023-03-06T05:48:48.587Z,29.02
2023-03-06T05:49:47.593Z,28.98
2023-03-06T05:50:48.595Z,28.96
2023-03-06T05:51:47.571Z,28.98
2023-03-06T05:52:48.619Z,28.98
2023-03-06T05:53:48.750Z,28.92
2023-03-06T05:54:48.698Z,28.96
2023-03-06T05:55:48.729Z,28.95
2023-03-06T05:56:47.777Z,28.94
2023-03-06T05:57:48.843Z,28.94
2023-03-06T05:58:47.873Z,28.96
2023-03-06T05:59:48.908Z,28.98
2023-03-06T06:00:47.958Z,28.98
2023-03-06T06:01:48.998Z,28.96
2023-03-06T06:02:49.044Z,28.95
2023-03-06T06:03:49.153Z,28.99
2023-03-06T06:04:49.122Z,28.99
2023-03-06T06:05:48.160Z,28.95
2023-03-06T06:06:49.205Z,28.98
2023-03-06T06:07:49.277Z,28.92
2023-03-06T06:08:49.293Z,28.95
2023-03-06T06:09:49.322Z,28.92
2023-03-06T06:10:51.581Z,28.98
2023-03-06T06:11:48.368Z,28.93
2023-03-06T06:12:49.369Z,28.96
2023-03-06T06:13:49.364Z,29.00
2023-03-06T06:14:48.339Z,28.94
2023-03-06T06:15:49.410Z,28.91
2023-03-06T06:16:49.342Z,28.95
2023-03-06T06:17:49.349Z,28.95
2023-03-06T06:18:49.321Z,28.94
2023-03-06T06:19:48.310Z,28.91
2023-03-06T06:20:49.312Z,29.00
2023-03-06T06:21:49.302Z,28.97
2023-03-06T06:22:49.303Z,29.01
2023-03-06T06:23:48.288Z,28.99
2023-03-06T06:24:49.298Z,29.01
2023-03-06T06:25:49.294Z,29.01
2023-03-06T06:26:49.264Z,29.02
2023-03-06T06:27:49.314Z,29.07
2023-03-06T06:28:49.340Z,29.15
2023-03-06T06:29:49.419Z,29.22
2023-03-06T06:30:49.463Z,29.57
2023-03-06T06:31:48.443Z,29.73
2023-03-06T06:32:49.482Z,29.56
2023-03-06T06:33:49.498Z,29.61
2023-03-06T06:34:49.534Z,29.56
2023-03-06T06:35:49.589Z,29.56
2023-03-06T06:36:52.213Z,29.60
2023-03-06T06:37:49.580Z,29.73
2023-03-06T06:38:49.543Z,29.70
2023-03-06T06:39:49.547Z,30.01
2023-03-06T06:41:26.897Z,30.05
2023-03-06T06:42:14.537Z,29.88
2023-03-06T06:42:49.529Z,29.93
2023-03-06T06:43:49.532Z,29.93
2023-03-06T06:44:49.623Z,30.08
2023-03-06T06:45:50.424Z,30.04
2023-03-06T06:47:49.552Z,29.97
2023-03-06T06:48:49.469Z,30.21
2023-03-06T06:49:49.482Z,30.18
2023-03-06T06:50:49.490Z,30.24
2023-03-06T06:51:49.541Z,30.36
2023-03-06T06:52:49.505Z,30.45
2023-03-06T06:53:49.446Z,30.50
2023-03-06T06:54:49.442Z,30.66
2023-03-06T06:55:49.462Z,30.97
2023-03-06T06:56:49.428Z,31.01
2023-03-06T06:57:49.429Z,31.12
2023-03-06T06:58:49.420Z,31.45
2023-03-06T06:59:51.262Z,31.54
2023-03-06T07:00:49.413Z,31.51
2023-03-06T07:01:49.460Z,32.02
2023-03-06T07:02:49.456Z,32.06
2023-03-06T07:03:49.398Z,32.45
2023-03-06T07:05:03.013Z,32.10
2023-03-06T07:05:49.375Z,32.28
2023-03-06T07:06:48.936Z,32.37
2023-03-06T07:07:49.370Z,32.56
2023-03-06T07:08:49.325Z,32.69
2023-03-06T07:09:49.315Z,32.74
2023-03-06T07:10:49.320Z,32.94
2023-03-06T07:11:49.354Z,32.63
2023-03-06T07:12:49.332Z,33.26
2023-03-06T07:13:49.311Z,33.41
2023-03-06T07:14:49.296Z,33.63
2023-03-06T07:15:48.326Z,33.86
2023-03-06T07:16:49.278Z,33.74
2023-03-06T07:17:50.294Z,33.31
2023-03-06T07:18:48.263Z,33.61
2023-03-06T07:19:49.275Z,33.56
2023-03-06T07:20:49.240Z,33.94
2023-03-06T07:21:49.277Z,34.05
2023-03-06T07:22:51.602Z,33.95
2023-03-06T07:23:49.284Z,34.25
2023-03-06T07:24:49.267Z,34.03
2023-03-06T07:25:48.218Z,34.51
2023-03-06T07:26:48.208Z,34.42
2023-03-06T07:27:53.475Z,34.39
2023-03-06T07:28:52.750Z,34.62
2023-03-06T07:29:49.174Z,34.66
2023-03-06T07:30:48.162Z,34.91
2023-03-06T07:31:49.172Z,35.08
2023-03-06T07:32:49.188Z,34.72
2023-03-06T07:33:49.178Z,35.07
2023-03-06T07:34:49.193Z,34.95
2023-03-06T07:35:49.156Z,35.12
2023-03-06T07:36:49.149Z,35.00
2023-03-06T07:37:48.121Z,35.00
2023-03-06T07:38:49.156Z,35.08
2023-03-06T07:39:49.122Z,35.46
2023-03-06T07:40:49.110Z,35.49
2023-03-06T07:41:49.102Z,35.40
2023-03-06T07:42:49.132Z,35.48
2023-03-06T07:43:49.093Z,35.75
2023-03-06T07:44:48.100Z,35.43
2023-03-06T07:45:49.070Z,35.59
2023-03-06T07:46:49.107Z,35.72
2023-03-06T07:47:49.049Z,35.77
2023-03-06T07:48:49.069Z,35.60
2023-03-06T07:49:48.073Z,36.16
2023-03-06T07:50:48.056Z,36.11
2023-03-06T07:51:49.058Z,36.15
2023-03-06T07:52:49.037Z,35.71
2023-03-06T07:53:49.449Z,36.11
2023-03-06T07:54:49.018Z,36.29
2023-03-06T07:55:49.015Z,35.05
2023-03-06T07:56:49.009Z,35.67
2023-03-06T07:57:49.004Z,35.48
2023-03-06T07:58:49.467Z,35.19
2023-03-06T07:59:47.971Z,35.41
2023-03-06T08:00:48.969Z,35.24
2023-03-06T08:01:48.956Z,35.51
2023-03-06T08:02:49.045Z,35.44
2023-03-06T08:03:48.979Z,35.47
2023-03-06T08:04:48.941Z,35.53
2023-03-06T08:05:49.004Z,35.73
2023-03-06T08:06:48.941Z,35.87
2023-03-06T08:07:48.937Z,35.67
2023-03-06T08:08:48.949Z,35.81
2023-03-06T08:09:48.909Z,35.82
2023-03-06T08:10:48.924Z,35.98
2023-03-06T08:11:48.959Z,35.93
2023-03-06T08:12:48.987Z,35.96
2023-03-06T08:13:49.042Z,36.14
2023-03-06T08:14:49.056Z,36.13
2023-03-06T08:15:48.061Z,36.39
2023-03-06T08:16:48.126Z,36.43
2023-03-06T08:17:49.145Z,36.98
2023-03-06T08:18:48.204Z,36.61
2023-03-06T08:19:49.249Z,36.73
2023-03-06T08:20:49.321Z,36.39
2023-03-06T08:21:49.408Z,36.71
2023-03-06T08:22:48.442Z,36.59
2023-03-06T08:23:49.479Z,36.41
2023-03-06T08:24:49.506Z,36.45
2023-03-06T08:25:49.559Z,36.77
2023-03-06T08:26:49.644Z,36.97
2023-03-06T08:27:49.722Z,37.28
2023-03-06T08:28:49.742Z,36.60
2023-03-06T08:29:49.803Z,37.07
2023-03-06T08:30:49.858Z,36.67
2023-03-06T08:31:49.971Z,36.86
2023-03-06T08:32:49.021Z,37.22
2023-03-06T08:33:50.064Z,37.33
2023-03-06T08:34:50.104Z,37.22
2023-03-06T08:35:50.217Z,37.42
2023-03-06T08:36:49.231Z,37.66
2023-03-06T08:37:50.303Z,37.18
2023-03-06T08:38:49.324Z,37.86
2023-03-06T08:39:50.356Z,37.92
2023-03-06T08:40:50.398Z,37.40
2023-03-06T08:41:50.435Z,37.60
2023-03-06T08:42:50.484Z,37.85
2023-03-06T08:43:50.517Z,37.68
2023-03-06T08:44:50.568Z,37.47
2023-03-06T08:45:50.696Z,38.27
2023-03-06T08:46:50.637Z,38.44
2023-03-06T08:47:50.722Z,38.31
2023-03-06T08:48:51.018Z,38.27
2023-03-06T08:49:49.825Z,38.20
2023-03-06T08:50:49.873Z,38.24
2023-03-06T08:51:50.913Z,38.13
2023-03-06T08:52:50.002Z,38.44
2023-03-06T08:53:51.065Z,38.51
2023-03-06T08:54:51.067Z,38.78
2023-03-06T08:55:51.104Z,38.77
2023-03-06T08:56:51.154Z,38.84
2023-03-06T08:57:51.211Z,38.92
2023-03-06T08:58:51.246Z,39.07
2023-03-06T08:59:50.262Z,39.05
2023-03-06T09:00:50.446Z,39.07
2023-03-06T09:01:51.367Z,39.12
2023-03-06T09:02:50.392Z,39.04
2023-03-06T09:03:51.461Z,39.10
2023-03-06T09:04:50.506Z,39.17
2023-03-06T09:05:50.507Z,39.60
2023-03-06T09:06:51.530Z,39.57
2023-03-06T09:07:50.566Z,39.64
2023-03-06T09:08:51.588Z,39.37
2023-03-06T09:09:51.691Z,39.53
2023-03-06T09:10:51.757Z,39.43
2023-03-06T09:11:51.702Z,39.31
2023-03-06T09:12:54.416Z,39.54
2023-03-06T09:13:51.726Z,39.49
2023-03-06T09:14:51.692Z,39.53
2023-03-06T09:15:51.699Z,39.70
2023-03-06T09:16:51.749Z,39.62
2023-03-06T09:17:51.697Z,39.64
2023-03-06T09:18:51.681Z,39.82
2023-03-06T09:19:51.658Z,39.90
2023-03-06T09:20:51.672Z,40.03
2023-03-06T09:21:51.670Z,39.98
2023-03-06T09:22:51.650Z,39.92
2023-03-06T09:23:51.645Z,39.97
2023-03-06T09:24:51.641Z,39.88
2023-03-06T09:25:50.650Z,39.76
2023-03-06T09:26:51.836Z,40.01
2023-03-06T09:28:08.658Z,40.07
2023-03-06T09:28:51.617Z,40.53
2023-03-06T09:29:51.597Z,40.24
2023-03-06T09:30:51.619Z,40.61
2023-03-06T09:31:50.568Z,41.17
2023-03-06T09:32:51.572Z,40.96
2023-03-06T09:33:51.574Z,40.78
2023-03-06T09:34:50.570Z,40.80
2023-03-06T09:35:51.582Z,41.21
2023-03-06T09:36:56.505Z,40.80
2023-03-06T09:37:51.550Z,40.97
2023-03-06T09:38:51.541Z,40.98
2023-03-06T09:39:51.523Z,41.01
2023-03-06T09:40:50.536Z,41.28
2023-03-06T09:41:51.549Z,41.31
2023-03-06T09:42:51.517Z,41.15
2023-03-06T09:43:51.996Z,39.93
2023-03-06T09:44:51.512Z,38.84
2023-03-06T09:45:51.563Z,37.56
2023-03-06T09:46:51.479Z,37.75
2023-03-06T09:47:51.478Z,39.80
2023-03-06T09:48:51.471Z,37.22
2023-03-06T09:49:50.478Z,35.86
2023-03-06T09:50:51.450Z,38.65
2023-03-06T09:51:50.453Z,37.54
2023-03-06T09:52:51.475Z,37.49
2023-03-06T09:53:51.433Z,37.02
2023-03-06T09:54:51.423Z,37.13
2023-03-06T09:55:51.417Z,37.42
2023-03-06T09:56:51.411Z,37.30
2023-03-06T09:57:52.439Z,37.59
2023-03-06T09:58:51.537Z,38.07
2023-03-06T09:59:50.398Z,37.54
2023-03-06T10:00:51.379Z,37.51
2023-03-06T10:01:50.369Z,37.77
2023-03-06T10:02:51.519Z,38.49
2023-03-06T10:03:50.365Z,37.86
2023-03-06T10:04:50.427Z,37.92
2023-03-06T10:05:51.350Z,37.60
2023-03-06T10:06:51.341Z,37.84
2023-03-06T10:07:50.348Z,37.84
2023-03-06T10:08:51.315Z,37.80
2023-03-06T10:09:50.400Z,38.25
2023-03-06T10:10:51.314Z,38.03
2023-03-06T10:11:50.362Z,37.86
2023-03-06T10:12:50.377Z,38.07
2023-03-06T10:13:51.527Z,38.11
2023-03-06T10:14:51.503Z,38.08
2023-03-06T10:15:50.545Z,38.14
2023-03-06T10:16:51.586Z,38.36
2023-03-06T10:17:51.631Z,38.17
2023-03-06T10:18:50.683Z,38.30
2023-03-06T10:19:51.735Z,38.55
2023-03-06T10:20:50.758Z,38.36
2023-03-06T10:21:51.802Z,38.53
2023-03-06T10:23:00.622Z,38.70
2023-03-06T10:23:51.831Z,38.72
2023-03-06T10:24:50.827Z,38.78
2023-03-06T10:25:50.832Z,38.70
2023-03-06T10:26:51.951Z,38.87
2023-03-06T10:27:51.807Z,38.98
2023-03-06T10:28:51.812Z,39.16
2023-03-06T10:30:02.117Z,39.76
2023-03-06T10:30:51.915Z,39.51
2023-03-06T10:31:51.786Z,39.52
2023-03-06T10:32:51.810Z,39.48
2023-03-06T10:33:51.762Z,39.87
2023-03-06T10:34:51.776Z,39.76
2023-03-06T10:35:50.888Z,39.66
2023-03-06T10:36:51.759Z,39.69
2023-03-06T10:37:51.746Z,40.10
2023-03-06T10:38:51.758Z,40.08
2023-03-06T10:39:51.724Z,40.20
2023-03-06T10:40:51.714Z,40.19
2023-03-06T10:41:51.737Z,39.96
2023-03-06T10:42:58.768Z,39.90
2023-03-06T10:43:51.708Z,40.23
2023-03-06T10:44:51.026Z,40.23
2023-03-06T10:45:50.757Z,40.49
2023-03-06T10:46:51.697Z,40.74
2023-03-06T10:47:51.667Z,40.26
2023-03-06T10:48:51.682Z,40.52
2023-03-06T10:49:52.026Z,40.90
2023-03-06T10:50:51.625Z,40.29
2023-03-06T10:51:51.671Z,40.68
2023-03-06T10:52:51.618Z,40.77
2023-03-06T10:53:51.679Z,40.70
2023-03-06T10:54:51.047Z,41.15
2023-03-06T10:55:51.603Z,40.32
2023-03-06T10:56:51.593Z,40.09
2023-03-06T10:57:51.598Z,38.92
2023-03-06T10:58:51.577Z,38.44
2023-03-06T10:59:51.603Z,38.71
2023-03-06T11:00:51.552Z,37.95
2023-03-06T11:01:51.713Z,39.09
2023-03-06T11:02:51.532Z,36.38
2023-03-06T11:03:51.575Z,38.34
2023-03-06T11:04:51.648Z,38.46
2023-03-06T11:05:51.505Z,38.05
2023-03-06T11:06:51.510Z,37.78
2023-03-06T11:07:51.493Z,37.46
2023-03-06T11:08:51.532Z,37.24
2023-03-06T11:09:51.501Z,37.34
2023-03-06T11:10:51.484Z,37.29
2023-03-06T11:11:51.480Z,37.25
2023-03-06T11:12:51.477Z,37.23
2023-03-06T11:13:51.454Z,37.24
2023-03-06T11:14:51.453Z,37.19
2023-03-06T11:15:51.479Z,37.20
2023-03-06T11:16:51.445Z,37.23
2023-03-06T11:17:51.528Z,37.36
2023-03-06T11:18:51.444Z,37.47
2023-03-06T11:19:51.451Z,37.47
2023-03-06T11:20:52.843Z,37.70
2023-03-06T11:21:50.573Z,37.74
2023-03-06T11:22:51.575Z,37.86
2023-03-06T11:23:51.605Z,37.87
2023-03-06T11:24:51.604Z,37.92
2023-03-06T11:25:51.634Z,37.94
2023-03-06T11:26:51.647Z,38.08
2023-03-06T11:27:51.640Z,38.17
2023-03-06T11:28:50.678Z,38.19
2023-03-06T11:29:51.679Z,38.40
2023-03-06T11:30:51.680Z,38.39
2023-03-06T11:31:50.684Z,38.34
2023-03-06T11:32:51.702Z,38.46
2023-03-06T11:33:51.723Z,38.55
2023-03-06T11:34:51.717Z,38.78
2023-03-06T11:35:51.798Z,38.94
2023-03-06T11:36:51.711Z,38.95
2023-03-06T11:37:51.716Z,38.99
2023-03-06T11:38:51.725Z,39.75
2023-03-06T11:39:51.796Z,39.98
2023-03-06T11:40:51.752Z,39.91
2023-03-06T11:41:51.751Z,40.18
2023-03-06T11:42:51.763Z,40.04
2023-03-06T11:43:50.730Z,40.19
2023-03-06T11:44:50.725Z,39.86
2023-03-06T11:45:51.747Z,39.63
2023-03-06T11:46:51.850Z,39.21
2023-03-06T11:47:51.805Z,38.82
2023-03-06T11:48:51.801Z,39.24
2023-03-06T11:49:51.894Z,39.18
2023-03-06T11:50:51.827Z,38.67
2023-03-06T11:51:51.860Z,37.81
2023-03-06T11:52:51.869Z,37.47
2023-03-06T11:53:51.920Z,37.92
2023-03-06T11:54:51.913Z,37.73
2023-03-06T11:55:51.967Z,37.86
2023-03-06T11:56:52.040Z,37.86
2023-03-06T11:57:51.986Z,38.00
2023-03-06T11:58:52.014Z,38.29
2023-03-06T11:59:52.031Z,38.19
2023-03-06T12:00:52.034Z,38.17
2023-03-06T12:01:52.166Z,38.01
2023-03-06T12:02:52.044Z,38.28
2023-03-06T12:03:52.047Z,38.37
2023-03-06T12:04:52.073Z,38.79
2023-03-06T12:05:52.087Z,38.66
2023-03-06T12:06:52.070Z,38.89
2023-03-06T12:07:52.090Z,39.16
2023-03-06T12:08:52.078Z,38.90
2023-03-06T12:09:52.101Z,39.19
2023-03-06T12:10:52.446Z,38.97
2023-03-06T12:11:52.092Z,39.17
2023-03-06T12:12:52.083Z,39.20
2023-03-06T12:14:51.099Z,39.40
2023-03-06T12:15:52.101Z,39.37
2023-03-06T12:16:52.175Z,39.47
2023-03-06T12:17:52.085Z,39.66
2023-03-06T12:18:52.080Z,39.72
2023-03-06T12:19:51.112Z,39.50
2023-03-06T12:20:52.088Z,39.71
2023-03-06T12:21:52.111Z,39.88
2023-03-06T12:22:57.585Z,40.28
2023-03-06T12:23:52.080Z,40.20
2023-03-06T12:24:52.086Z,40.09
2023-03-06T12:25:52.066Z,40.02
2023-03-06T12:26:52.046Z,40.16
2023-03-06T12:27:52.033Z,40.63
2023-03-06T12:28:52.026Z,40.52
2023-03-06T12:29:52.075Z,40.69
2023-03-06T12:30:52.023Z,40.75
2023-03-06T12:31:52.055Z,40.82
2023-03-06T12:32:52.144Z,40.89
2023-03-06T12:33:51.994Z,41.17
2023-03-06T12:34:51.993Z,40.88
2023-03-06T12:35:51.015Z,41.52
2023-03-06T12:36:52.010Z,41.86
2023-03-06T12:37:51.990Z,42.02
2023-03-06T12:38:51.970Z,41.71
2023-03-06T12:39:52.065Z,41.73
2023-03-06T12:40:51.961Z,41.58
2023-03-06T12:41:51.937Z,41.40
2023-03-06T12:42:51.943Z,41.31
2023-03-06T12:43:51.918Z,41.52
2023-03-06T12:44:50.920Z,41.68
2023-03-06T12:45:51.981Z,41.50
2023-03-06T12:46:51.930Z,41.68
2023-03-06T12:47:51.895Z,41.72
2023-03-06T12:48:50.893Z,41.76
2023-03-06T12:49:50.899Z,41.90
2023-03-06T12:50:51.870Z,41.65
2023-03-06T12:51:51.864Z,41.86
2023-03-06T12:52:51.873Z,42.00
2023-03-06T12:53:51.893Z,42.03
2023-03-06T12:54:51.895Z,41.83